sensor_id;sensor_type;location;lat;lon;timestamp;pressure;altitude;pressure_sealevel;temperature;humidity
71938;BME280;59810;48.800;9.086;2023-04-09T00:01:07;98309.19;;;5.00;88.00
71938;BME280;59810;48.800;9.086;2023-04-09T00:03:33;98305.88;;;4.98;89.04
71938;BME280;59810;48.800;9.086;2023-04-09T00:05:58;98302.81;;;5.01;89.13
71938;BME280;59810;48.800;9.086;2023-04-09T00:08:29;98307.91;;;4.96;89.27
71938;BME280;59810;48.800;9.086;2023-04-09T00:10:59;98305.88;;;4.98;89.02
71938;BME280;59810;48.800;9.086;2023-04-09T00:13:28;98309.59;;;5.04;88.22
71938;BME280;59810;48.800;9.086;2023-04-09T00:15:53;98307.34;;;5.07;88.34
71938;BME280;59810;48.800;9.086;2023-04-09T00:18:18;98306.31;;;5.08;89.29
71938;BME280;59810;48.800;9.086;2023-04-09T00:20:47;98307.19;;;5.15;88.88
71938;BME280;59810;48.800;9.086;2023-04-09T00:23:12;98308.41;;;5.13;88.73
71938;BME280;59810;48.800;9.086;2023-04-09T00:25:39;98300.97;;;5.08;89.59
71938;BME280;59810;48.800;9.086;2023-04-09T00:28:05;98302.22;;;5.12;90.23
71938;BME280;59810;48.800;9.086;2023-04-09T00:30:32;98305.50;;;5.08;89.71
71938;BME280;59810;48.800;9.086;2023-04-09T00:32:58;98294.16;;;5.06;90.16
71938;BME280;59810;48.800;9.086;2023-04-09T00:35:23;98293.56;;;5.10;89.69
71938;BME280;59810;48.800;9.086;2023-04-09T00:37:51;98291.53;;;5.12;89.66
71938;BME280;59810;48.800;9.086;2023-04-09T00:40:17;98294.41;;;5.17;88.37
71938;BME280;59810;48.800;9.086;2023-04-09T00:42:44;98295.22;;;5.11;89.07
71938;BME280;59810;48.800;9.086;2023-04-09T00:45:12;98289.03;;;5.11;90.36
71938;BME280;59810;48.800;9.086;2023-04-09T00:47:37;98288.63;;;5.07;90.25
71938;BME280;59810;48.800;9.086;2023-04-09T00:50:03;98285.75;;;5.09;90.24
71938;BME280;59810;48.800;9.086;2023-04-09T00:52:29;98284.09;;;5.08;90.51
71938;BME280;59810;48.800;9.086;2023-04-09T00:54:55;98291.50;;;5.06;90.81
71938;BME280;59810;48.800;9.086;2023-04-09T00:57:20;98289.84;;;5.05;91.50
71938;BME280;59810;48.800;9.086;2023-04-09T00:59:46;98288.00;;;5.05;90.83
71938;BME280;59810;48.800;9.086;2023-04-09T01:02:11;98285.94;;;5.07;91.82
71938;BME280;59810;48.800;9.086;2023-04-09T01:04:37;98284.28;;;5.06;91.35
71938;BME280;59810;48.800;9.086;2023-04-09T01:10:16;98293.16;;;5.13;90.51
71938;BME280;59810;48.800;9.086;2023-04-09T01:15:13;98284.94;;;5.15;92.09
71938;BME280;59810;48.800;9.086;2023-04-09T01:20:22;98292.38;;;5.19;90.13
71938;BME280;59810;48.800;9.086;2023-04-09T01:23:22;98286.25;;;5.25;88.90
71938;BME280;59810;48.800;9.086;2023-04-09T01:28:39;98292.63;;;5.24;87.31
71938;BME280;59810;48.800;9.086;2023-04-09T01:31:14;98294.06;;;5.20;87.88
71938;BME280;59810;48.800;9.086;2023-04-09T01:33:41;98286.84;;;5.21;87.36
71938;BME280;59810;48.800;9.086;2023-04-09T01:36:10;98290.16;;;5.23;87.58
71938;BME280;59810;48.800;9.086;2023-04-09T01:38:38;98284.34;;;5.19;88.20
71938;BME280;59810;48.800;9.086;2023-04-09T01:41:06;98290.09;;;5.16;88.36
71938;BME280;59810;48.800;9.086;2023-04-09T01:43:33;98287.22;;;5.18;88.74
71938;BME280;59810;48.800;9.086;2023-04-09T01:46:00;98287.19;;;5.11;88.80
71938;BME280;59810;48.800;9.086;2023-04-09T01:48:30;98290.28;;;5.08;89.69
71938;BME280;59810;48.800;9.086;2023-04-09T01:50:58;98288.84;;;5.12;90.17
71938;BME280;59810;48.800;9.086;2023-04-09T01:53:26;98289.88;;;5.11;90.32
71938;BME280;59810;48.800;9.086;2023-04-09T01:55:55;98286.16;;;5.06;90.51
71938;BME280;59810;48.800;9.086;2023-04-09T01:58:21;98277.50;;;5.10;89.96
71938;BME280;59810;48.800;9.086;2023-04-09T02:00:51;98282.47;;;5.13;89.77
71938;BME280;59810;48.800;9.086;2023-04-09T02:03:25;98284.53;;;5.18;89.42
71938;BME280;59810;48.800;9.086;2023-04-09T02:08:28;98287.41;;;5.16;91.02
71938;BME280;59810;48.800;9.086;2023-04-09T02:10:57;98287.91;;;5.26;89.30
71938;BME280;59810;48.800;9.086;2023-04-09T02:13:24;98289.34;;;5.29;88.80
71938;BME280;59810;48.800;9.086;2023-04-09T02:15:51;98287.06;;;5.26;89.55
71938;BME280;59810;48.800;9.086;2023-04-09T02:18:24;98282.94;;;5.23;90.62
71938;BME280;59810;48.800;9.086;2023-04-09T02:20:51;98282.75;;;5.25;89.79
71938;BME280;59810;48.800;9.086;2023-04-09T02:23:19;98275.13;;;5.22;89.12
71938;BME280;59810;48.800;9.086;2023-04-09T02:25:45;98280.50;;;5.28;88.91
71938;BME280;59810;48.800;9.086;2023-04-09T02:28:10;98281.53;;;5.27;88.09
71938;BME280;59810;48.800;9.086;2023-04-09T02:30:39;98281.28;;;5.22;89.01
71938;BME280;59810;48.800;9.086;2023-04-09T02:33:05;98274.66;;;5.18;90.36
71938;BME280;59810;48.800;9.086;2023-04-09T02:35:30;98282.06;;;5.16;90.70
71938;BME280;59810;48.800;9.086;2023-04-09T02:37:55;98278.75;;;5.14;90.89
71938;BME280;59810;48.800;9.086;2023-04-09T02:40:21;98278.53;;;5.09;91.19
71938;BME280;59810;48.800;9.086;2023-04-09T02:42:52;98279.16;;;5.11;90.55
71938;BME280;59810;48.800;9.086;2023-04-09T02:45:20;98278.75;;;5.14;90.02
71938;BME280;59810;48.800;9.086;2023-04-09T02:47:46;98282.88;;;5.10;89.93
71938;BME280;59810;48.800;9.086;2023-04-09T02:50:11;98278.94;;;5.06;90.96
71938;BME280;59810;48.800;9.086;2023-04-09T02:52:39;98275.81;;;4.96;90.71
71938;BME280;59810;48.800;9.086;2023-04-09T02:55:07;98283.25;;;5.00;90.96
71938;BME280;59810;48.800;9.086;2023-04-09T02:57:32;98282.59;;;4.92;91.22
71938;BME280;59810;48.800;9.086;2023-04-09T03:00:00;98279.13;;;4.98;91.22
71938;BME280;59810;48.800;9.086;2023-04-09T03:02:25;98275.81;;;4.96;91.14
71938;BME280;59810;48.800;9.086;2023-04-09T03:04:51;98270.06;;;4.99;91.45
71938;BME280;59810;48.800;9.086;2023-04-09T03:07:17;98274.16;;;4.95;91.41
71938;BME280;59810;48.800;9.086;2023-04-09T03:09:42;98272.13;;;4.97;90.61
71938;BME280;59810;48.800;9.086;2023-04-09T03:12:07;98268.41;;;4.98;89.45
71938;BME280;59810;48.800;9.086;2023-04-09T03:14:33;98265.91;;;4.90;91.13
71938;BME280;59810;48.800;9.086;2023-04-09T03:16:58;98267.50;;;4.84;91.59
71938;BME280;59810;48.800;9.086;2023-04-09T03:19:23;98261.25;;;4.71;92.11
71938;BME280;59810;48.800;9.086;2023-04-09T03:21:49;98270.31;;;4.69;92.92
71938;BME280;59810;48.800;9.086;2023-04-09T03:24:16;98259.59;;;4.69;92.84
71938;BME280;59810;48.800;9.086;2023-04-09T03:26:41;98263.31;;;4.68;93.13
71938;BME280;59810;48.800;9.086;2023-04-09T03:29:09;98266.16;;;4.60;92.75
71938;BME280;59810;48.800;9.086;2023-04-09T03:31:35;98274.28;;;4.52;93.26
71938;BME280;59810;48.800;9.086;2023-04-09T03:34:00;98261.94;;;4.51;93.35
71938;BME280;59810;48.800;9.086;2023-04-09T03:36:28;98262.56;;;4.53;93.11
71938;BME280;59810;48.800;9.086;2023-04-09T03:38:53;98268.59;;;4.55;93.21
71938;BME280;59810;48.800;9.086;2023-04-09T03:41:20;98267.94;;;4.53;93.80
71938;BME280;59810;48.800;9.086;2023-04-09T03:43:48;98270.41;;;4.55;93.45
71938;BME280;59810;48.800;9.086;2023-04-09T03:46:14;98264.88;;;4.56;93.90
71938;BME280;59810;48.800;9.086;2023-04-09T03:48:42;98265.25;;;4.53;94.03
71938;BME280;59810;48.800;9.086;2023-04-09T03:51:12;98261.81;;;4.59;94.01
71938;BME280;59810;48.800;9.086;2023-04-09T03:53:38;98257.53;;;4.65;93.78
71938;BME280;59810;48.800;9.086;2023-04-09T03:56:03;98263.72;;;4.65;93.29
71938;BME280;59810;48.800;9.086;2023-04-09T03:58:35;98260.81;;;4.60;93.90
71938;BME280;59810;48.800;9.086;2023-04-09T04:01:03;98264.09;;;4.62;93.83
71938;BME280;59810;48.800;9.086;2023-04-09T04:03:28;98259.19;;;4.66;94.24
71938;BME280;59810;48.800;9.086;2023-04-09T04:05:59;98256.53;;;4.73;92.65
71938;BME280;59810;48.800;9.086;2023-04-09T04:08:25;98259.25;;;4.79;91.97
71938;BME280;59810;48.800;9.086;2023-04-09T04:10:50;98264.16;;;4.76;91.14
71938;BME280;59810;48.800;9.086;2023-04-09T04:13:16;98256.53;;;4.73;91.37
71938;BME280;59810;48.800;9.086;2023-04-09T04:15:41;98259.22;;;4.73;91.63
71938;BME280;59810;48.800;9.086;2023-04-09T04:18:10;98269.91;;;4.73;91.81
71938;BME280;59810;48.800;9.086;2023-04-09T04:20:36;98270.34;;;4.76;92.14
71938;BME280;59810;48.800;9.086;2023-04-09T04:23:02;98272.75;;;5.06;100.00
71938;BME280;59810;48.800;9.086;2023-04-09T04:25:28;98278.34;;;5.11;92.86
71938;BME280;59810;48.800;9.086;2023-04-09T04:27:53;98276.03;;;5.01;91.35
71938;BME280;59810;48.800;9.086;2023-04-09T04:30:19;98280.53;;;4.94;91.01
71938;BME280;59810;48.800;9.086;2023-04-09T04:32:46;98272.09;;;4.90;91.45
71938;BME280;59810;48.800;9.086;2023-04-09T04:35:11;98274.16;;;4.95;90.86
71938;BME280;59810;48.800;9.086;2023-04-09T04:37:39;98276.97;;;4.87;92.41
71938;BME280;59810;48.800;9.086;2023-04-09T04:40:06;98275.50;;;4.78;93.18
71938;BME280;59810;48.800;9.086;2023-04-09T04:42:31;98281.00;;;4.69;93.57
71938;BME280;59810;48.800;9.086;2023-04-09T04:44:57;98277.69;;;4.67;93.78
71938;BME280;59810;48.800;9.086;2023-04-09T04:47:22;98280.59;;;4.73;93.38
71938;BME280;59810;48.800;9.086;2023-04-09T04:49:47;98285.13;;;4.72;93.51
71938;BME280;59810;48.800;9.086;2023-04-09T04:52:13;98284.72;;;4.68;92.86
71938;BME280;59810;48.800;9.086;2023-04-09T04:54:38;98290.66;;;4.64;93.19
71938;BME280;59810;48.800;9.086;2023-04-09T04:57:04;98283.66;;;4.63;93.26
71938;BME280;59810;48.800;9.086;2023-04-09T04:59:29;98281.16;;;4.61;93.68
71938;BME280;59810;48.800;9.086;2023-04-09T05:01:57;98278.09;;;4.64;93.18
71938;BME280;59810;48.800;9.086;2023-04-09T05:04:25;98287.56;;;4.67;93.24
71938;BME280;59810;48.800;9.086;2023-04-09T05:06:54;98285.94;;;4.66;93.03
71938;BME280;59810;48.800;9.086;2023-04-09T05:09:22;98285.50;;;4.62;93.67
71938;BME280;59810;48.800;9.086;2023-04-09T05:11:47;98285.50;;;4.62;93.89
71938;BME280;59810;48.800;9.086;2023-04-09T05:14:15;98282.22;;;4.67;93.36
71938;BME280;59810;48.800;9.086;2023-04-09T05:16:40;98289.84;;;4.70;93.92
71938;BME280;59810;48.800;9.086;2023-04-09T05:19:05;98295.16;;;4.63;93.19
71938;BME280;59810;48.800;9.086;2023-04-09T05:21:31;98298.66;;;4.64;92.74
71938;BME280;59810;48.800;9.086;2023-04-09T05:23:56;98298.47;;;4.65;92.58
71938;BME280;59810;48.800;9.086;2023-04-09T05:26:22;98291.06;;;4.67;92.59
71938;BME280;59810;48.800;9.086;2023-04-09T05:28:47;98293.38;;;4.77;92.46
71938;BME280;59810;48.800;9.086;2023-04-09T05:31:13;98285.41;;;4.84;92.53
71938;BME280;59810;48.800;9.086;2023-04-09T05:33:40;98285.25;;;4.92;92.46
71938;BME280;59810;48.800;9.086;2023-04-09T05:36:05;98289.19;;;4.96;91.80
71938;BME280;59810;48.800;9.086;2023-04-09T05:38:31;98299.91;;;4.96;91.91
71938;BME280;59810;48.800;9.086;2023-04-09T05:40:59;98294.97;;;4.99;91.73
71938;BME280;59810;48.800;9.086;2023-04-09T05:43:25;98290.28;;;5.08;91.60
71938;BME280;59810;48.800;9.086;2023-04-09T05:45:50;98295.63;;;5.08;91.58
71938;BME280;59810;48.800;9.086;2023-04-09T05:48:15;98300.56;;;5.11;92.33
71938;BME280;59810;48.800;9.086;2023-04-09T05:50:48;98294.78;;;5.08;92.23
71938;BME280;59810;48.800;9.086;2023-04-09T05:53:13;98290.69;;;5.12;92.54
71938;BME280;59810;48.800;9.086;2023-04-09T05:55:39;98298.13;;;5.16;93.45
71938;BME280;59810;48.800;9.086;2023-04-09T05:58:04;98295.06;;;5.19;92.78
71938;BME280;59810;48.800;9.086;2023-04-09T06:00:29;98309.31;;;5.26;92.52
71938;BME280;59810;48.800;9.086;2023-04-09T06:02:55;98301.31;;;5.33;92.50
71938;BME280;59810;48.800;9.086;2023-04-09T06:05:20;98308.94;;;5.36;91.47
71938;BME280;59810;48.800;9.086;2023-04-09T06:07:46;98319.03;;;5.34;91.37
71938;BME280;59810;48.800;9.086;2023-04-09T06:10:11;98309.56;;;5.38;91.19
71938;BME280;59810;48.800;9.086;2023-04-09T06:12:36;98318.25;;;5.47;90.85
71938;BME280;59810;48.800;9.086;2023-04-09T06:15:03;98305.53;;;5.55;89.56
71938;BME280;59810;48.800;9.086;2023-04-09T06:17:29;98305.72;;;5.54;88.19
71938;BME280;59810;48.800;9.086;2023-04-09T06:19:54;98303.41;;;5.51;88.52
71938;BME280;59810;48.800;9.086;2023-04-09T06:22:19;98304.91;;;5.60;89.07
71938;BME280;59810;48.800;9.086;2023-04-09T06:24:45;98298.13;;;5.64;88.06
71938;BME280;59810;48.800;9.086;2023-04-09T06:27:10;98292.56;;;5.72;88.25
71938;BME280;59810;48.800;9.086;2023-04-09T06:29:36;98292.16;;;5.75;88.27
71938;BME280;59810;48.800;9.086;2023-04-09T06:32:01;98292.63;;;5.85;88.01
71938;BME280;59810;48.800;9.086;2023-04-09T06:34:27;98301.06;;;5.89;87.76
71938;BME280;59810;48.800;9.086;2023-04-09T06:36:52;98291.59;;;5.86;87.34
71938;BME280;59810;48.800;9.086;2023-04-09T06:39:17;98297.81;;;5.93;87.32
71938;BME280;59810;48.800;9.086;2023-04-09T06:41:42;98301.72;;;5.91;87.59
71938;BME280;59810;48.800;9.086;2023-04-09T06:44:08;98305.03;;;6.00;87.51
71938;BME280;59810;48.800;9.086;2023-04-09T06:46:33;98309.16;;;6.02;88.62
71938;BME280;59810;48.800;9.086;2023-04-09T06:49:01;98314.72;;;6.07;89.03
71938;BME280;59810;48.800;9.086;2023-04-09T06:51:26;98320.72;;;6.16;88.54
71938;BME280;59810;48.800;9.086;2023-04-09T06:53:51;98310.84;;;6.23;88.53
71938;BME280;59810;48.800;9.086;2023-04-09T06:56:17;98313.94;;;6.27;87.11
71938;BME280;59810;48.800;9.086;2023-04-09T06:58:42;98319.09;;;6.35;86.77
71938;BME280;59810;48.800;9.086;2023-04-09T07:01:07;98320.72;;;6.42;86.89
71938;BME280;59810;48.800;9.086;2023-04-09T07:03:33;98320.13;;;6.53;86.01
71938;BME280;59810;48.800;9.086;2023-04-09T07:05:58;98315.16;;;6.57;85.30
71938;BME280;59810;48.800;9.086;2023-04-09T07:08:24;98317.84;;;6.64;85.45
71938;BME280;59810;48.800;9.086;2023-04-09T07:10:52;98311.63;;;6.70;85.19
71938;BME280;59810;48.800;9.086;2023-04-09T07:13:17;98318.44;;;6.85;83.67
71938;BME280;59810;48.800;9.086;2023-04-09T07:15:42;98316.56;;;6.93;82.06
71938;BME280;59810;48.800;9.086;2023-04-09T07:18:08;98309.31;;;7.00;82.55
71938;BME280;59810;48.800;9.086;2023-04-09T07:20:35;98311.38;;;7.04;82.42
71938;BME280;59810;48.800;9.086;2023-04-09T07:23:07;98311.56;;;7.09;82.56
71938;BME280;59810;48.800;9.086;2023-04-09T07:25:32;98311.97;;;7.13;81.32
71938;BME280;59810;48.800;9.086;2023-04-09T07:27:58;98315.88;;;7.24;80.70
71938;BME280;59810;48.800;9.086;2023-04-09T07:30:23;98310.69;;;7.29;80.29
71938;BME280;59810;48.800;9.086;2023-04-09T07:32:52;98314.38;;;7.34;79.35
71938;BME280;59810;48.800;9.086;2023-04-09T07:35:21;98314.97;;;7.43;78.69
71938;BME280;59810;48.800;9.086;2023-04-09T07:37:46;98321.72;;;7.59;76.42
71938;BME280;59810;48.800;9.086;2023-04-09T07:40:12;98318.44;;;7.57;77.01
71938;BME280;59810;48.800;9.086;2023-04-09T07:42:39;98324.56;;;7.70;77.38
71938;BME280;59810;48.800;9.086;2023-04-09T07:45:07;98322.25;;;7.74;74.27
71938;BME280;59810;48.800;9.086;2023-04-09T07:47:32;98309.81;;;7.79;75.30
71938;BME280;59810;48.800;9.086;2023-04-09T07:50:01;98315.41;;;7.85;73.37
71938;BME280;59810;48.800;9.086;2023-04-09T07:52:26;98322.56;;;7.97;73.57
71938;BME280;59810;48.800;9.086;2023-04-09T07:54:51;98317.78;;;7.99;72.28
71938;BME280;59810;48.800;9.086;2023-04-09T07:57:17;98328.72;;;8.04;72.14
71938;BME280;59810;48.800;9.086;2023-04-09T07:59:42;98326.41;;;8.08;71.98
71938;BME280;59810;48.800;9.086;2023-04-09T08:02:08;98328.81;;;8.23;70.43
71938;BME280;59810;48.800;9.086;2023-04-09T08:04:33;98335.38;;;8.33;70.85
71938;BME280;59810;48.800;9.086;2023-04-09T08:06:58;98333.44;;;8.47;69.26
71938;BME280;59810;48.800;9.086;2023-04-09T08:09:24;98326.94;;;8.55;70.32
71938;BME280;59810;48.800;9.086;2023-04-09T08:11:49;98331.06;;;8.57;69.46
71938;BME280;59810;48.800;9.086;2023-04-09T08:14:16;98337.44;;;8.63;69.97
71938;BME280;59810;48.800;9.086;2023-04-09T08:16:44;98331.00;;;8.64;68.74
71938;BME280;59810;48.800;9.086;2023-04-09T08:19:10;98339.31;;;8.87;68.23
71938;BME280;59810;48.800;9.086;2023-04-09T08:21:36;98336.81;;;9.11;66.14
71938;BME280;59810;48.800;9.086;2023-04-09T08:24:03;98339.13;;;9.44;65.86
71938;BME280;59810;48.800;9.086;2023-04-09T08:26:30;98338.28;;;9.61;65.91
71938;BME280;59810;48.800;9.086;2023-04-09T08:28:56;98336.63;;;9.60;61.83
71938;BME280;59810;48.800;9.086;2023-04-09T08:31:21;98335.00;;;9.59;62.30
71938;BME280;59810;48.800;9.086;2023-04-09T08:33:49;98338.75;;;9.58;60.25
71938;BME280;59810;48.800;9.086;2023-04-09T08:36:15;98337.63;;;9.48;61.90
71938;BME280;59810;48.800;9.086;2023-04-09T08:38:40;98340.94;;;9.50;63.10
71938;BME280;59810;48.800;9.086;2023-04-09T08:41:06;98341.16;;;9.48;63.41
71938;BME280;59810;48.800;9.086;2023-04-09T08:43:32;98344.31;;;9.45;63.47
71938;BME280;59810;48.800;9.086;2023-04-09T08:45:59;98347.28;;;9.37;61.71
71938;BME280;59810;48.800;9.086;2023-04-09T08:48:27;98342.03;;;9.42;63.90
71938;BME280;59810;48.800;9.086;2023-04-09T08:50:53;98339.72;;;9.46;64.53
71938;BME280;59810;48.800;9.086;2023-04-09T08:53:20;98342.88;;;9.24;62.20
71938;BME280;59810;48.800;9.086;2023-04-09T08:55:46;98350.78;;;9.19;62.96
71938;BME280;59810;48.800;9.086;2023-04-09T08:58:12;98352.75;;;9.30;65.17
71938;BME280;59810;48.800;9.086;2023-04-09T09:00:38;98351.84;;;9.36;61.46
71938;BME280;59810;48.800;9.086;2023-04-09T09:03:05;98348.78;;;9.51;61.59
71938;BME280;59810;48.800;9.086;2023-04-09T09:05:40;98346.22;;;9.56;61.13
71938;BME280;59810;48.800;9.086;2023-04-09T09:08:27;98348.31;;;9.73;62.99
71938;BME280;59810;48.800;9.086;2023-04-09T09:10:52;98348.47;;;9.78;61.59
71938;BME280;59810;48.800;9.086;2023-04-09T09:13:21;98350.38;;;9.89;61.02
71938;BME280;59810;48.800;9.086;2023-04-09T09:15:51;98350.38;;;9.89;60.26
71938;BME280;59810;48.800;9.086;2023-04-09T09:18:20;98350.53;;;9.94;60.71
71938;BME280;59810;48.800;9.086;2023-04-09T09:20:46;98346.88;;;9.88;59.46
71938;BME280;59810;48.800;9.086;2023-04-09T09:23:11;98343.47;;;10.11;60.70
71938;BME280;59810;48.800;9.086;2023-04-09T09:25:39;98336.09;;;10.18;59.05
71938;BME280;59810;48.800;9.086;2023-04-09T09:28:09;98342.81;;;10.27;58.75
71938;BME280;59810;48.800;9.086;2023-04-09T09:30:35;98347.56;;;10.14;57.15
71938;BME280;59810;48.800;9.086;2023-04-09T09:33:09;98346.81;;;10.25;54.82
71938;BME280;59810;48.800;9.086;2023-04-09T09:35:52;98348.47;;;10.38;53.28
71938;BME280;59810;48.800;9.086;2023-04-09T09:38:18;98349.00;;;10.58;54.19
71938;BME280;59810;48.800;9.086;2023-04-09T09:40:44;98356.03;;;10.47;54.30
71938;BME280;59810;48.800;9.086;2023-04-09T09:43:10;98348.94;;;10.35;54.08
71938;BME280;59810;48.800;9.086;2023-04-09T09:45:36;98348.53;;;10.61;53.91
71938;BME280;59810;48.800;9.086;2023-04-09T09:48:04;98348.34;;;10.74;54.59
71938;BME280;59810;48.800;9.086;2023-04-09T09:50:30;98346.94;;;10.83;54.15
71938;BME280;59810;48.800;9.086;2023-04-09T09:53:04;98349.63;;;11.18;55.20
71938;BME280;59810;48.800;9.086;2023-04-09T09:55:31;98347.25;;;11.45;55.79
71938;BME280;59810;48.800;9.086;2023-04-09T09:57:59;98350.69;;;11.41;56.21
71938;BME280;59810;48.800;9.086;2023-04-09T10:00:26;98348.78;;;11.41;54.83
71938;BME280;59810;48.800;9.086;2023-04-09T10:02:56;98357.22;;;11.80;57.20
71938;BME280;59810;48.800;9.086;2023-04-09T10:05:23;98348.84;;;11.81;52.72
71938;BME280;59810;48.800;9.086;2023-04-09T10:07:53;98348.63;;;12.11;53.37
71938;BME280;59810;48.800;9.086;2023-04-09T10:10:21;98341.19;;;12.35;53.28
71938;BME280;59810;48.800;9.086;2023-04-09T10:12:47;98358.47;;;12.46;52.65
71938;BME280;59810;48.800;9.086;2023-04-09T10:15:13;98353.22;;;12.39;51.45
71938;BME280;59810;48.800;9.086;2023-04-09T10:17:38;98350.25;;;12.41;51.03
71938;BME280;59810;48.800;9.086;2023-04-09T10:20:06;98354.88;;;12.29;44.61
71938;BME280;59810;48.800;9.086;2023-04-09T10:22:35;98347.16;;;12.21;44.84
71938;BME280;59810;48.800;9.086;2023-04-09T10:25:02;98359.16;;;12.25;43.35
71938;BME280;59810;48.800;9.086;2023-04-09T10:27:28;98347.25;;;12.26;43.25
71938;BME280;59810;48.800;9.086;2023-04-09T10:29:56;98347.47;;;12.07;43.47
71938;BME280;59810;48.800;9.086;2023-04-09T10:32:25;98352.16;;;12.12;44.21
71938;BME280;59810;48.800;9.086;2023-04-09T10:34:57;98351.44;;;12.33;43.07
71938;BME280;59810;48.800;9.086;2023-04-09T10:37:24;98342.72;;;12.43;43.94
71938;BME280;59810;48.800;9.086;2023-04-09T10:39:51;98349.19;;;12.42;42.31
71938;BME280;59810;48.800;9.086;2023-04-09T10:42:21;98353.56;;;12.14;42.16
71938;BME280;59810;48.800;9.086;2023-04-09T10:45:08;98350.78;;;11.98;42.23
71938;BME280;59810;48.800;9.086;2023-04-09T10:47:36;98349.28;;;11.90;42.71
71938;BME280;59810;48.800;9.086;2023-04-09T10:50:26;98342.50;;;12.33;43.24
71938;BME280;59810;48.800;9.086;2023-04-09T10:52:55;98345.91;;;12.57;39.98
71938;BME280;59810;48.800;9.086;2023-04-09T10:55:31;98356.34;;;12.65;38.58
71938;BME280;59810;48.800;9.086;2023-04-09T10:57:59;98354.06;;;12.28;39.61
71938;BME280;59810;48.800;9.086;2023-04-09T11:00:24;98334.59;;;12.14;38.42
71938;BME280;59810;48.800;9.086;2023-04-09T11:05:35;98339.84;;;12.04;41.04
71938;BME280;59810;48.800;9.086;2023-04-09T11:08:08;98329.53;;;11.90;39.12
71938;BME280;59810;48.800;9.086;2023-04-09T11:10:35;98339.69;;;12.11;40.25
71938;BME280;59810;48.800;9.086;2023-04-09T11:13:01;98327.63;;;12.19;42.95
71938;BME280;59810;48.800;9.086;2023-04-09T11:15:27;98327.16;;;11.93;40.46
71938;BME280;59810;48.800;9.086;2023-04-09T11:17:53;98337.72;;;11.95;41.37
71938;BME280;59810;48.800;9.086;2023-04-09T11:20:20;98331.09;;;12.02;41.86
71938;BME280;59810;48.800;9.086;2023-04-09T11:22:48;98324.81;;;12.42;42.57
71938;BME280;59810;48.800;9.086;2023-04-09T11:25:21;98318.16;;;12.83;41.60
71938;BME280;59810;48.800;9.086;2023-04-09T11:27:47;98318.75;;;13.02;40.88
71938;BME280;59810;48.800;9.086;2023-04-09T11:30:13;98316.50;;;12.99;40.49
71938;BME280;59810;48.800;9.086;2023-04-09T11:32:39;98321.13;;;12.82;41.67
71938;BME280;59810;48.800;9.086;2023-04-09T11:35:09;98317.34;;;12.83;42.46
71938;BME280;59810;48.800;9.086;2023-04-09T11:37:40;98327.59;;;12.64;42.13
71938;BME280;59810;48.800;9.086;2023-04-09T11:40:07;98325.69;;;12.31;42.02
71938;BME280;59810;48.800;9.086;2023-04-09T11:42:35;98320.41;;;12.69;43.86
71938;BME280;59810;48.800;9.086;2023-04-09T11:45:02;98320.47;;;12.74;42.18
71938;BME280;59810;48.800;9.086;2023-04-09T11:47:28;98329.34;;;12.87;43.26
71938;BME280;59810;48.800;9.086;2023-04-09T11:49:53;98323.22;;;13.13;44.32
71938;BME280;59810;48.800;9.086;2023-04-09T11:52:19;98323.50;;;12.78;43.07
71938;BME280;59810;48.800;9.086;2023-04-09T11:54:48;98327.78;;;12.74;44.42
71938;BME280;59810;48.800;9.086;2023-04-09T11:57:16;98326.03;;;13.18;43.10
71938;BME280;59810;48.800;9.086;2023-04-09T11:59:41;98323.13;;;13.42;45.11
71938;BME280;59810;48.800;9.086;2023-04-09T12:02:10;98318.25;;;12.71;42.47
71938;BME280;59810;48.800;9.086;2023-04-09T12:04:48;98328.41;;;13.53;44.50
71938;BME280;59810;48.800;9.086;2023-04-09T12:07:15;98326.91;;;13.84;42.72
71938;BME280;59810;48.800;9.086;2023-04-09T12:09:47;98323.09;;;14.34;41.97
71938;BME280;59810;48.800;9.086;2023-04-09T12:12:17;98322.16;;;14.23;41.27
71938;BME280;59810;48.800;9.086;2023-04-09T12:14:46;98316.34;;;14.37;40.09
71938;BME280;59810;48.800;9.086;2023-04-09T12:17:12;98326.84;;;14.87;40.18
71938;BME280;59810;48.800;9.086;2023-04-09T12:19:37;98320.22;;;14.19;38.66
71938;BME280;59810;48.800;9.086;2023-04-09T12:22:02;98315.88;;;14.72;41.87
71938;BME280;59810;48.800;9.086;2023-04-09T12:24:28;98322.50;;;14.86;39.65
71938;BME280;59810;48.800;9.086;2023-04-09T12:26:53;98320.75;;;15.07;39.78
71938;BME280;59810;48.800;9.086;2023-04-09T12:29:19;98321.03;;;15.57;38.85
71938;BME280;59810;48.800;9.086;2023-04-09T12:31:46;98315.56;;;15.52;37.69
71938;BME280;59810;48.800;9.086;2023-04-09T12:34:12;98318.13;;;15.27;38.40
71938;BME280;59810;48.800;9.086;2023-04-09T12:36:40;98309.69;;;15.23;37.75
71938;BME280;59810;48.800;9.086;2023-04-09T12:39:07;98302.91;;;15.73;39.43
71938;BME280;59810;48.800;9.086;2023-04-09T12:41:32;98306.56;;;15.52;37.26
71938;BME280;59810;48.800;9.086;2023-04-09T12:43:58;98302.22;;;15.04;36.94
71938;BME280;59810;48.800;9.086;2023-04-09T12:46:23;98283.25;;;15.61;36.88
71938;BME280;59810;48.800;9.086;2023-04-09T12:48:48;98287.03;;;15.60;38.38
71938;BME280;59810;48.800;9.086;2023-04-09T12:51:14;98294.03;;;16.13;36.92
71938;BME280;59810;48.800;9.086;2023-04-09T12:53:41;98283.16;;;16.44;35.88
71938;BME280;59810;48.800;9.086;2023-04-09T12:56:07;98283.91;;;15.99;34.75
71938;BME280;59810;48.800;9.086;2023-04-09T12:58:32;98288.63;;;16.44;34.84
71938;BME280;59810;48.800;9.086;2023-04-09T13:00:58;98277.19;;;16.88;37.18
71938;BME280;59810;48.800;9.086;2023-04-09T13:03:24;98280.66;;;16.02;36.18
71938;BME280;59810;48.800;9.086;2023-04-09T13:05:50;98281.25;;;15.46;37.74
71938;BME280;59810;48.800;9.086;2023-04-09T13:08:18;98278.69;;;15.92;35.75
71938;BME280;59810;48.800;9.086;2023-04-09T13:10:45;98275.16;;;15.86;36.81
71938;BME280;59810;48.800;9.086;2023-04-09T13:13:10;98272.78;;;16.10;35.34
71938;BME280;59810;48.800;9.086;2023-04-09T13:15:40;98273.34;;;16.58;35.47
71938;BME280;59810;48.800;9.086;2023-04-09T13:18:10;98264.66;;;16.76;35.77
71938;BME280;59810;48.800;9.086;2023-04-09T13:20:35;98267.50;;;17.41;35.35
71938;BME280;59810;48.800;9.086;2023-04-09T13:23:01;98263.28;;;17.79;33.79